createdAt,value
2022-08-22T00:00:16.921Z,2.10
2022-08-22T00:02:43.552Z,2.40
2022-08-22T00:03:10.387Z,1.98
2022-08-22T00:03:25.055Z,1.90
2022-08-22T00:06:22.191Z,2.28
2022-08-22T00:09:03.908Z,2.17
2022-08-22T05:05:45.023Z,4.40
2022-08-22T07:19:37.157Z,5.72
2022-08-22T07:22:23.438Z,6.68
2022-08-22T08:49:24.753Z,3.47
2022-08-22T08:54:56.800Z,3.33
2022-08-22T08:57:58.751Z,3.95
2022-08-22T09:00:45.720Z,5.47
2022-08-22T09:03:42.034Z,4.32
2022-08-22T09:06:52.878Z,3.65
2022-08-22T09:09:52.258Z,4.03
2022-08-22T09:12:25.923Z,3.55
2022-08-22T09:15:15.407Z,3.40
2022-08-22T09:18:00.426Z,2.80
2022-08-22T09:20:48.605Z,2.97
2022-08-22T09:23:53.799Z,3.17
2022-08-22T09:26:45.943Z,2.80
2022-08-22T09:32:39.191Z,2.85
2022-08-22T09:35:30.521Z,2.35
2022-08-22T09:38:47.849Z,3.53
2022-08-22T09:41:33.068Z,2.83
2022-08-22T09:44:12.120Z,2.20
2022-08-22T09:46:53.155Z,2.78
2022-08-22T09:50:04.967Z,2.38
2022-08-22T09:52:54.765Z,3.57
2022-08-22T10:53:35.053Z,2.13
2022-08-22T13:36:58.185Z,2.15
2022-08-22T13:39:35.455Z,2.67
2022-08-22T13:42:14.176Z,3.17
2022-08-22T13:44:48.528Z,4.22
2022-08-22T13:47:18.778Z,4.03
2022-08-22T13:49:54.468Z,3.80
2022-08-22T13:52:38.126Z,4.80
2022-08-22T13:55:22.217Z,4.22
2022-08-22T13:57:58.142Z,2.42
2022-08-22T14:00:56.533Z,3.60
2022-08-22T14:03:39.745Z,3.60
2022-08-22T14:09:09.407Z,2.55
2022-08-22T14:11:43.203Z,9.50
2022-08-22T14:16:48.848Z,43.35
